createdAt,value
2022-11-02T00:02:57.279Z,99.90
2022-11-02T00:07:18.993Z,99.90
2022-11-02T00:11:41.006Z,99.90
2022-11-02T00:16:08.454Z,99.90
2022-11-02T00:20:30.598Z,99.90
2022-11-02T00:24:52.941Z,99.90
2022-11-02T00:29:14.842Z,99.90
2022-11-02T00:33:37.086Z,99.90
2022-11-02T00:37:59.623Z,99.90
2022-11-02T00:42:21.580Z,99.90
2022-11-02T00:46:43.457Z,99.90
2022-11-02T00:51:05.630Z,99.90
2022-11-02T00:55:27.513Z,99.90
2022-11-02T00:59:54.265Z,99.90
2022-11-02T01:04:20.382Z,99.90
2022-11-02T01:08:42.519Z,99.90
2022-11-02T01:13:04.310Z,99.90
2022-11-02T01:17:26.514Z,99.90
2022-11-02T01:21:48.378Z,99.90
2022-11-02T01:26:10.430Z,99.90
2022-11-02T01:30:32.332Z,99.90
2022-11-02T01:34:54.221Z,99.90
2022-11-02T01:39:16.427Z,99.90
2022-11-02T01:43:38.227Z,99.90
2022-11-02T01:48:00.434Z,99.90
2022-11-02T01:52:34.258Z,99.90
2022-11-02T01:57:05.654Z,99.90
2022-11-02T02:01:28.171Z,99.90
2022-11-02T02:06:13.787Z,99.90
2022-11-02T02:10:36.780Z,99.90
2022-11-02T02:15:00.756Z,99.90
2022-11-02T02:19:58.035Z,99.90
2022-11-02T02:24:49.548Z,99.90
2022-11-02T02:30:01.991Z,99.90
2022-11-02T02:34:46.080Z,99.90
2022-11-02T02:39:29.722Z,99.90
2022-11-02T02:43:55.196Z,99.90
2022-11-02T02:48:23.013Z,99.90
2022-11-02T02:52:47.253Z,99.90
2022-11-02T02:57:17.776Z,99.90
2022-11-02T03:01:45.486Z,99.90
2022-11-02T03:06:23.009Z,99.90
2022-11-02T03:11:16.562Z,99.90
2022-11-02T03:16:06.769Z,99.90
2022-11-02T03:20:59.061Z,99.90
2022-11-02T03:25:52.735Z,99.90
2022-11-02T03:30:19.910Z,99.90
2022-11-02T03:34:52.580Z,99.90
2022-11-02T03:39:20.811Z,99.90
2022-11-02T03:43:44.924Z,99.90
2022-11-02T03:48:11.597Z,99.90
2022-11-02T03:52:39.815Z,99.90
2022-11-02T03:57:07.545Z,99.90
2022-11-02T04:01:31.545Z,99.90
2022-11-02T04:05:53.810Z,99.90
2022-11-02T04:10:27.513Z,99.90
2022-11-02T04:14:49.554Z,99.90
2022-11-02T04:19:28.712Z,99.90
2022-11-02T04:24:18.991Z,99.90
2022-11-02T04:28:42.612Z,99.90
2022-11-02T04:33:24.066Z,99.90
2022-11-02T04:38:21.105Z,99.90
2022-11-02T04:42:47.310Z,99.90
2022-11-02T04:47:09.510Z,99.90
2022-11-02T04:51:31.924Z,99.90
2022-11-02T04:55:54.151Z,99.90
2022-11-02T05:00:17.412Z,99.90
2022-11-02T05:04:39.893Z,99.90
2022-11-02T05:09:02.826Z,99.90
2022-11-02T05:13:27.039Z,99.90
2022-11-02T05:17:51.920Z,99.90
2022-11-02T05:22:13.815Z,99.90
2022-11-02T05:26:36.769Z,99.90
2022-11-02T05:31:01.852Z,99.90
2022-11-02T05:35:26.832Z,99.90
2022-11-02T05:39:58.199Z,99.90
2022-11-02T05:44:20.215Z,99.90
2022-11-02T05:48:42.478Z,99.90
2022-11-02T05:53:04.777Z,99.90
2022-11-02T05:57:27.180Z,99.90
2022-11-02T06:01:49.269Z,99.90
2022-11-02T06:06:12.456Z,99.90
2022-11-02T06:10:34.311Z,99.90
2022-11-02T06:14:56.287Z,99.90
2022-11-02T06:19:18.544Z,99.90
2022-11-02T06:23:40.691Z,99.90
2022-11-02T06:28:02.740Z,99.90
2022-11-02T06:32:26.914Z,99.90
2022-11-02T06:36:48.928Z,99.90
2022-11-02T06:41:10.646Z,99.90
2022-11-02T06:45:34.054Z,99.90
2022-11-02T06:49:56.291Z,99.90
2022-11-02T06:54:18.323Z,99.90
2022-11-02T06:58:40.621Z,99.90
2022-11-02T07:03:05.858Z,99.90
2022-11-02T07:07:28.273Z,99.90
2022-11-02T07:11:50.431Z,99.90
2022-11-02T07:16:12.666Z,99.90
2022-11-02T07:20:34.921Z,99.90
2022-11-02T07:24:56.658Z,99.90
2022-11-02T07:29:19.631Z,99.90
2022-11-02T07:33:41.625Z,99.90
2022-11-02T07:38:07.312Z,99.90
2022-11-02T07:42:29.193Z,99.90
2022-11-02T07:46:52.580Z,99.90
2022-11-02T07:51:14.518Z,98.30
2022-11-02T07:55:36.428Z,97.40
2022-11-02T07:59:58.405Z,96.10
2022-11-02T08:08:46.998Z,94.00
2022-11-02T08:13:11.408Z,91.70
2022-11-02T08:17:35.618Z,90.10
2022-11-02T08:21:57.192Z,87.10
2022-11-02T08:26:19.103Z,85.60
2022-11-02T08:30:41.375Z,84.00
2022-11-02T08:35:03.190Z,82.70
2022-11-02T08:39:25.157Z,87.30
2022-11-02T08:43:47.248Z,88.60
2022-11-02T08:48:09.040Z,91.00
2022-11-02T08:52:40.345Z,93.00
2022-11-02T08:57:02.769Z,95.20
2022-11-02T09:01:24.882Z,99.00
2022-11-02T09:05:47.936Z,99.90
2022-11-02T09:10:10.259Z,99.90
2022-11-02T09:14:31.951Z,99.90
2022-11-02T09:18:53.890Z,99.90
2022-11-02T09:23:21.844Z,99.90
2022-11-02T09:27:44.825Z,99.90
2022-11-02T09:32:06.660Z,99.90
2022-11-02T09:36:28.785Z,99.90
2022-11-02T09:41:30.544Z,99.90
2022-11-02T09:46:13.591Z,99.90
2022-11-02T09:51:20.510Z,99.90
2022-11-02T09:55:53.232Z,99.90
2022-11-02T10:00:18.538Z,99.90
2022-11-02T10:05:17.616Z,98.50
2022-11-02T10:09:51.169Z,97.80
2022-11-02T10:14:23.103Z,97.00
2022-11-02T10:18:49.592Z,94.00
2022-11-02T10:23:38.634Z,96.20
2022-11-02T10:28:24.372Z,96.30
2022-11-02T10:33:01.617Z,95.20
2022-11-02T10:38:14.773Z,97.10
2022-11-02T10:42:47.843Z,98.60
2022-11-02T10:47:20.501Z,99.90
2022-11-02T10:51:42.449Z,99.90
2022-11-02T10:56:13.148Z,99.90
2022-11-02T11:00:37.338Z,99.90
2022-11-02T11:05:13.838Z,99.90
2022-11-02T11:09:57.221Z,99.90
2022-11-02T11:23:49.616Z,99.90
2022-11-02T11:28:37.506Z,99.90
2022-11-02T11:33:01.276Z,99.90
2022-11-02T11:37:24.316Z,99.90
2022-11-02T11:41:46.360Z,99.90
2022-11-02T11:46:10.976Z,99.90
2022-11-02T11:50:33.838Z,99.90
2022-11-02T11:54:59.017Z,99.30
2022-11-02T11:59:42.449Z,97.30
2022-11-02T12:04:04.238Z,96.80
2022-11-02T12:08:44.761Z,98.50
2022-11-02T12:13:17.677Z,99.70
2022-11-02T12:18:00.291Z,99.90
2022-11-02T12:22:51.351Z,99.90
2022-11-02T12:27:32.188Z,99.90
2022-11-02T12:32:11.412Z,99.90
2022-11-02T12:37:40.012Z,99.90
2022-11-02T12:42:16.000Z,99.90
2022-11-02T12:47:08.940Z,99.90
2022-11-02T12:51:40.760Z,99.90
2022-11-02T12:56:08.129Z,99.90
2022-11-02T13:00:32.463Z,99.90
2022-11-02T13:05:05.833Z,99.90
2022-11-02T13:09:39.131Z,99.90
2022-11-02T13:14:04.882Z,99.90
2022-11-02T13:18:39.460Z,99.90
2022-11-02T13:28:39.191Z,99.90
2022-11-02T13:33:16.085Z,99.90
2022-11-02T13:37:48.852Z,99.90
2022-11-02T13:42:49.877Z,99.90
2022-11-02T13:47:23.477Z,99.90
2022-11-02T13:51:58.631Z,99.90
2022-11-02T13:56:28.137Z,99.90
2022-11-02T14:00:51.442Z,99.90
2022-11-02T14:05:27.811Z,99.90
2022-11-02T14:09:50.912Z,99.90
2022-11-02T14:14:22.009Z,99.90
2022-11-02T14:18:43.779Z,99.90
2022-11-02T14:23:11.721Z,99.90
2022-11-02T14:27:34.318Z,99.90
2022-11-02T14:32:01.445Z,99.90
2022-11-02T14:36:57.064Z,99.90
2022-11-02T14:41:59.313Z,99.90
2022-11-02T14:47:00.238Z,99.90
2022-11-02T14:51:36.034Z,99.90
2022-11-02T14:55:57.981Z,99.90
2022-11-02T15:00:32.428Z,99.90
2022-11-02T15:05:01.787Z,99.90
2022-11-02T15:10:00.198Z,99.90
2022-11-02T15:14:38.023Z,99.90
2022-11-02T15:19:49.769Z,99.90
2022-11-02T15:24:17.999Z,99.90
2022-11-02T15:28:42.662Z,99.90
2022-11-02T15:33:06.772Z,99.90
2022-11-02T15:37:45.295Z,99.90
2022-11-02T15:42:47.194Z,99.90
2022-11-02T15:47:44.747Z,99.90
2022-11-02T15:52:18.455Z,99.90
2022-11-02T15:57:30.410Z,99.90
2022-11-02T16:02:41.405Z,99.90
2022-11-02T16:07:07.500Z,99.90
2022-11-02T16:11:29.921Z,99.90
2022-11-02T16:16:06.545Z,99.90
2022-11-02T16:20:36.853Z,99.90
2022-11-02T16:24:58.585Z,99.90
2022-11-02T16:29:31.519Z,99.90
2022-11-02T16:33:56.258Z,99.90
2022-11-02T16:38:18.874Z,99.90
2022-11-02T16:42:40.731Z,99.90
2022-11-02T16:47:09.545Z,99.90
2022-11-02T16:51:31.436Z,99.90
2022-11-02T16:55:58.502Z,99.90
2022-11-02T17:00:21.306Z,99.90
2022-11-02T17:04:45.660Z,99.90
2022-11-02T17:09:32.953Z,99.90
2022-11-02T17:14:00.223Z,99.90
2022-11-02T17:18:21.999Z,99.90
2022-11-02T17:23:07.038Z,99.90
2022-11-02T17:27:37.659Z,99.90
2022-11-02T17:32:05.493Z,99.90
2022-11-02T17:36:28.774Z,99.90
2022-11-02T17:40:52.410Z,99.90
2022-11-02T17:45:33.590Z,99.90
2022-11-02T17:49:56.093Z,99.90
2022-11-02T17:54:18.672Z,99.90
2022-11-02T17:58:40.585Z,99.90
2022-11-02T18:03:03.284Z,99.90
2022-11-02T18:07:25.168Z,99.90
2022-11-02T18:11:47.391Z,99.90
2022-11-02T18:16:09.223Z,99.90
2022-11-02T18:20:32.904Z,99.90
2022-11-02T18:24:57.039Z,99.90
2022-11-02T18:29:19.234Z,99.90
2022-11-02T18:33:43.647Z,99.90
2022-11-02T18:38:05.381Z,99.90
2022-11-02T18:42:27.182Z,99.90
2022-11-02T18:46:49.610Z,99.90
2022-11-02T18:51:11.500Z,99.90
2022-11-02T18:55:33.799Z,99.90
2022-11-02T18:59:56.113Z,99.90
2022-11-02T19:04:18.042Z,99.90
2022-11-02T19:08:58.894Z,99.90
2022-11-02T19:13:21.207Z,99.90
2022-11-02T19:17:45.353Z,99.90
2022-11-02T19:22:08.141Z,99.90
2022-11-02T19:26:30.275Z,99.90
2022-11-02T19:30:52.419Z,99.90
2022-11-02T19:35:15.301Z,99.90
2022-11-02T19:39:37.635Z,99.90
2022-11-02T19:43:59.692Z,99.90
2022-11-02T19:48:21.435Z,99.90
2022-11-02T19:52:46.521Z,99.90
2022-11-02T19:57:08.420Z,99.90
2022-11-02T20:01:33.315Z,99.90
2022-11-02T20:06:01.091Z,99.90
2022-11-02T20:10:23.835Z,99.90
2022-11-02T20:14:46.494Z,99.90
2022-11-02T20:19:10.156Z,99.90
2022-11-02T20:23:33.814Z,99.90
2022-11-02T20:27:58.025Z,99.90
2022-11-02T20:32:24.021Z,99.90
2022-11-02T20:36:47.700Z,99.90
2022-11-02T20:41:19.921Z,99.90
2022-11-02T20:45:42.454Z,99.90
2022-11-02T20:50:04.534Z,99.90
2022-11-02T20:54:29.854Z,99.90
2022-11-02T20:58:55.714Z,99.90
2022-11-02T21:03:19.507Z,99.90
2022-11-02T21:07:41.681Z,99.90
2022-11-02T21:12:22.526Z,99.90
2022-11-02T21:16:44.828Z,99.90
2022-11-02T21:21:10.960Z,99.90
2022-11-02T21:25:33.519Z,99.90
2022-11-02T21:29:55.670Z,99.90
2022-11-02T21:34:17.775Z,99.90
2022-11-02T21:38:40.478Z,99.90
2022-11-02T21:43:02.750Z,99.90
2022-11-02T21:47:25.752Z,99.90
2022-11-02T21:51:47.921Z,99.90
2022-11-02T21:56:18.446Z,99.90
2022-11-02T22:00:59.281Z,99.90
2022-11-02T22:05:40.853Z,99.90
2022-11-02T22:10:04.708Z,99.90
2022-11-02T22:14:27.197Z,99.90
2022-11-02T22:18:49.667Z,99.90
2022-11-02T22:23:11.791Z,99.90
2022-11-02T22:27:36.873Z,99.90
2022-11-02T22:32:03.396Z,99.90
2022-11-02T22:36:31.644Z,99.90
2022-11-02T22:41:03.267Z,99.90
2022-11-02T22:45:24.814Z,99.90
2022-11-02T22:49:46.770Z,99.90
2022-11-02T22:54:14.933Z,99.90
2022-11-02T22:58:37.310Z,99.90
2022-11-02T23:02:59.314Z,99.90
2022-11-02T23:07:21.221Z,99.90
2022-11-02T23:11:43.952Z,99.90
2022-11-02T23:16:22.617Z,99.90
2022-11-02T23:20:53.755Z,99.90
2022-11-02T23:25:17.744Z,99.90
2022-11-02T23:29:58.534Z,99.90
2022-11-02T23:34:20.295Z,99.90
2022-11-02T23:39:06.816Z,99.90
2022-11-02T23:43:28.627Z,99.90
2022-11-02T23:47:57.122Z,99.90
2022-11-02T23:52:37.461Z,99.90
2022-11-02T23:56:59.569Z,99.90
